createdAt,value
2018-02-06T00:00:26.588Z,13.80
2018-02-06T00:00:58.338Z,13.80
2018-02-06T00:01:30.059Z,13.80
2018-02-06T00:02:02.564Z,13.80
2018-02-06T00:02:34.285Z,13.80
2018-02-06T00:03:06.016Z,13.80
2018-02-06T00:03:37.760Z,13.80
2018-02-06T00:04:09.507Z,13.90
2018-02-06T00:04:41.236Z,13.90
2018-02-06T00:05:13.737Z,13.80
2018-02-06T00:05:45.463Z,13.80
2018-02-06T00:06:17.192Z,13.90
2018-02-06T00:06:49.686Z,13.80
2018-02-06T00:07:21.507Z,13.80
2018-02-06T00:07:53.247Z,13.90
2018-02-06T00:08:25.739Z,13.80
2018-02-06T00:08:57.460Z,13.90
2018-02-06T00:09:29.211Z,13.90
2018-02-06T00:10:00.937Z,13.80
2018-02-06T00:10:32.668Z,13.80
2018-02-06T00:11:04.383Z,13.80
2018-02-06T00:11:36.120Z,13.80
2018-02-06T00:12:07.860Z,13.90
2018-02-06T00:12:39.599Z,13.90
2018-02-06T00:13:11.346Z,13.90
2018-02-06T00:13:43.054Z,13.80
2018-02-06T00:14:14.798Z,13.80
2018-02-06T00:14:46.548Z,13.80
2018-02-06T00:15:18.375Z,13.80
2018-02-06T00:15:50.868Z,13.80
2018-02-06T00:16:22.598Z,13.80
2018-02-06T00:16:54.329Z,13.80
2018-02-06T00:17:26.816Z,13.80
2018-02-06T00:17:58.544Z,13.80
2018-02-06T00:18:30.278Z,13.90
2018-02-06T00:19:02.774Z,13.80
2018-02-06T00:19:34.503Z,13.80
2018-02-06T00:20:06.232Z,13.80
2018-02-06T00:20:37.967Z,13.80
2018-02-06T00:21:10.467Z,13.90
2018-02-06T00:21:42.185Z,13.80
2018-02-06T00:22:13.909Z,13.80
2018-02-06T00:22:45.644Z,13.80
2018-02-06T00:23:17.453Z,13.90
2018-02-06T00:23:49.913Z,13.90
2018-02-06T00:24:21.640Z,13.80
2018-02-06T00:24:53.359Z,13.90
2018-02-06T00:25:25.860Z,13.80
2018-02-06T00:25:57.624Z,13.80
2018-02-06T00:26:29.364Z,13.80
2018-02-06T00:27:01.086Z,13.80
2018-02-06T00:27:32.833Z,13.80
2018-02-06T00:28:04.562Z,13.90
2018-02-06T00:28:36.290Z,13.80
2018-02-06T00:29:08.791Z,13.90
2018-02-06T00:29:40.511Z,13.80
2018-02-06T00:30:12.256Z,13.90
2018-02-06T00:30:43.991Z,13.90
2018-02-06T00:31:16.472Z,13.90
2018-02-06T00:31:48.300Z,13.80
2018-02-06T00:32:20.052Z,13.80
2018-02-06T00:32:51.797Z,13.80
2018-02-06T00:33:23.535Z,13.80
2018-02-06T00:33:55.276Z,13.90
2018-02-06T00:34:27.020Z,13.90
2018-02-06T00:34:58.790Z,13.80
2018-02-06T00:35:30.516Z,13.80
2018-02-06T00:36:02.255Z,13.80
2018-02-06T00:36:33.991Z,13.90
2018-02-06T00:37:06.512Z,13.80
2018-02-06T00:37:38.252Z,13.80
2018-02-06T00:38:09.972Z,13.80
2018-02-06T00:38:41.702Z,13.80
2018-02-06T00:39:13.435Z,13.80
2018-02-06T00:39:45.914Z,13.80
2018-02-06T00:40:17.763Z,13.80
2018-02-06T00:40:49.502Z,13.80
2018-02-06T00:41:21.241Z,13.80
2018-02-06T00:41:52.969Z,13.80
2018-02-06T00:42:25.464Z,13.80
2018-02-06T00:42:57.190Z,13.80
2018-02-06T00:43:28.928Z,13.80
2018-02-06T00:44:01.432Z,13.80
2018-02-06T00:44:33.163Z,13.80
2018-02-06T00:45:04.902Z,13.80
2018-02-06T00:45:36.716Z,13.80
2018-02-06T00:46:09.267Z,13.80
2018-02-06T00:46:40.948Z,13.80
2018-02-06T00:47:12.699Z,13.80
2018-02-06T00:47:44.432Z,13.80
2018-02-06T00:48:16.171Z,13.80
2018-02-06T00:48:47.902Z,13.80
2018-02-06T00:49:20.412Z,13.80
2018-02-06T00:49:52.133Z,13.70
2018-02-06T00:50:23.857Z,13.70
2018-02-06T00:50:55.624Z,13.70
2018-02-06T00:51:27.342Z,13.70
2018-02-06T00:51:59.865Z,13.80
2018-02-06T00:52:31.597Z,13.80
2018-02-06T00:53:03.317Z,13.80
2018-02-06T00:53:35.047Z,13.80
2018-02-06T00:54:06.775Z,13.80
2018-02-06T00:54:39.286Z,13.80
2018-02-06T00:55:11.030Z,13.80
2018-02-06T00:55:42.742Z,13.80
2018-02-06T00:56:14.477Z,13.80
2018-02-06T00:56:46.970Z,13.80
2018-02-06T00:57:18.693Z,13.80
2018-02-06T00:57:50.420Z,13.80
2018-02-06T00:58:22.923Z,13.80
2018-02-06T00:58:54.648Z,13.80
2018-02-06T00:59:26.380Z,13.80
2018-02-06T00:59:58.111Z,13.80
2018-02-06T01:00:30.681Z,13.80
2018-02-06T01:01:02.351Z,13.80
2018-02-06T01:01:34.068Z,13.80
2018-02-06T01:02:06.590Z,13.80
2018-02-06T01:02:38.334Z,13.80
2018-02-06T01:03:10.064Z,13.80
2018-02-06T01:03:41.799Z,13.80
2018-02-06T01:04:13.532Z,13.80
2018-02-06T01:04:45.260Z,13.80
2018-02-06T01:05:17.749Z,13.80
2018-02-06T01:05:49.489Z,13.80
2018-02-06T01:06:21.213Z,13.80
2018-02-06T01:06:52.950Z,13.80
2018-02-06T01:07:25.436Z,13.80
2018-02-06T01:07:57.170Z,13.80
2018-02-06T01:08:28.910Z,13.80
2018-02-06T01:09:00.636Z,13.90
2018-02-06T01:09:33.135Z,13.80
2018-02-06T01:10:04.870Z,13.80
2018-02-06T01:10:36.598Z,13.90
2018-02-06T01:11:09.489Z,13.80
2018-02-06T01:11:41.944Z,13.80
2018-02-06T01:12:13.700Z,13.80
2018-02-06T01:12:45.414Z,13.80
2018-02-06T01:13:17.917Z,13.80
2018-02-06T01:13:49.681Z,13.80
2018-02-06T01:14:21.404Z,13.80
2018-02-06T01:14:53.141Z,13.80
2018-02-06T01:15:24.879Z,13.80
2018-02-06T01:15:56.616Z,13.80
2018-02-06T01:16:28.361Z,13.80
2018-02-06T01:17:00.094Z,13.80
2018-02-06T01:17:31.834Z,13.80
2018-02-06T01:18:03.587Z,13.80
2018-02-06T01:18:35.980Z,13.80
2018-02-06T01:19:07.887Z,13.80
2018-02-06T01:19:39.600Z,13.80
2018-02-06T01:20:11.324Z,13.80
2018-02-06T01:20:43.049Z,13.80
2018-02-06T01:21:14.807Z,13.80
2018-02-06T01:21:46.514Z,13.80
2018-02-06T01:22:18.243Z,13.80
2018-02-06T01:22:49.976Z,13.80
2018-02-06T01:23:22.484Z,13.80
2018-02-06T01:23:54.200Z,13.80
2018-02-06T01:24:25.944Z,13.80
2018-02-06T01:24:58.434Z,13.80
2018-02-06T01:25:30.168Z,13.80
2018-02-06T01:26:01.988Z,13.80
2018-02-06T01:26:33.717Z,13.80
2018-02-06T01:27:06.272Z,13.80
2018-02-06T01:27:37.999Z,13.70
2018-02-06T01:28:09.728Z,13.80
2018-02-06T01:28:41.470Z,13.70
2018-02-06T01:29:13.187Z,13.80
2018-02-06T01:29:44.996Z,13.80
2018-02-06T01:30:17.494Z,13.80
2018-02-06T01:30:49.229Z,13.80
2018-02-06T01:31:20.953Z,13.80
2018-02-06T01:31:52.697Z,13.80
2018-02-06T01:32:24.438Z,13.70
2018-02-06T01:32:56.938Z,13.80
2018-02-06T01:33:28.655Z,13.70
2018-02-06T01:34:00.378Z,13.80
2018-02-06T01:34:32.869Z,13.70
2018-02-06T01:35:04.594Z,13.70
2018-02-06T01:35:37.092Z,13.70
2018-02-06T01:36:08.818Z,13.70
2018-02-06T01:36:40.536Z,13.70
2018-02-06T01:37:13.025Z,13.70
2018-02-06T01:37:44.760Z,13.70
2018-02-06T01:38:16.488Z,13.70
2018-02-06T01:38:48.991Z,13.70
2018-02-06T01:39:20.712Z,13.80
2018-02-06T01:39:52.460Z,13.80
2018-02-06T01:40:24.208Z,13.80
2018-02-06T01:40:55.964Z,13.80
2018-02-06T01:41:28.413Z,13.80
2018-02-06T01:42:00.153Z,13.70
2018-02-06T01:42:31.894Z,13.80
2018-02-06T01:43:03.635Z,13.70
2018-02-06T01:43:35.379Z,13.70
2018-02-06T01:44:07.110Z,13.80
2018-02-06T01:44:39.594Z,13.80
2018-02-06T01:45:11.329Z,13.80
2018-02-06T01:45:43.058Z,13.80
2018-02-06T01:46:15.548Z,13.80
2018-02-06T01:46:47.281Z,13.80
2018-02-06T01:47:19.019Z,13.70
2018-02-06T01:47:50.850Z,13.80
2018-02-06T01:48:23.355Z,13.70
2018-02-06T01:48:55.080Z,13.70
2018-02-06T01:49:26.804Z,13.70
2018-02-06T01:49:59.287Z,13.70
2018-02-06T01:50:31.020Z,13.70
2018-02-06T01:51:02.749Z,13.70
2018-02-06T01:51:35.252Z,13.70
2018-02-06T01:52:06.976Z,13.70
2018-02-06T01:52:38.847Z,13.80
2018-02-06T01:53:10.548Z,13.80
2018-02-06T01:53:43.052Z,13.70
2018-02-06T01:54:14.795Z,13.70
2018-02-06T01:54:46.560Z,13.70
2018-02-06T01:55:18.287Z,13.70
2018-02-06T01:55:50.026Z,13.70
2018-02-06T01:56:21.759Z,13.70
2018-02-06T01:56:53.497Z,13.70
2018-02-06T01:57:25.218Z,13.70
2018-02-06T01:57:57.728Z,13.70
2018-02-06T01:58:29.443Z,13.70
2018-02-06T01:59:01.176Z,13.80
2018-02-06T01:59:33.675Z,13.80
2018-02-06T02:00:05.408Z,13.70
2018-02-06T02:00:37.229Z,13.70
2018-02-06T02:01:09.728Z,13.80
2018-02-06T02:01:41.448Z,13.70
2018-02-06T02:02:13.279Z,13.80
2018-02-06T02:02:45.773Z,13.80
2018-02-06T02:03:17.602Z,13.80
2018-02-06T02:03:49.342Z,13.80
2018-02-06T02:04:21.076Z,13.70
2018-02-06T02:04:53.574Z,13.70
2018-02-06T02:05:25.294Z,13.70
2018-02-06T02:05:57.020Z,13.70
2018-02-06T02:06:29.517Z,13.80
2018-02-06T02:07:01.241Z,13.70
2018-02-06T02:07:32.971Z,13.70
2018-02-06T02:08:05.485Z,13.70
2018-02-06T02:08:37.206Z,13.70
2018-02-06T02:09:08.937Z,13.70
2018-02-06T02:09:40.672Z,13.70
2018-02-06T02:10:13.164Z,13.70
2018-02-06T02:10:44.887Z,13.70
2018-02-06T02:11:16.616Z,13.70
2018-02-06T02:11:49.125Z,13.80
2018-02-06T02:12:20.846Z,13.70
2018-02-06T02:12:52.580Z,13.70
2018-02-06T02:13:24.315Z,13.70
2018-02-06T02:13:56.795Z,13.70
2018-02-06T02:14:28.552Z,13.70
2018-02-06T02:15:00.263Z,13.70
2018-02-06T02:15:32.768Z,13.70
2018-02-06T02:16:04.491Z,13.70
2018-02-06T02:16:36.220Z,13.70
2018-02-06T02:17:08.720Z,13.70
2018-02-06T02:17:40.459Z,13.70
2018-02-06T02:18:12.178Z,13.70
2018-02-06T02:18:43.898Z,13.70
2018-02-06T02:19:16.420Z,13.70
2018-02-06T02:19:48.140Z,13.70
2018-02-06T02:20:19.908Z,13.70
2018-02-06T02:20:51.631Z,13.80
2018-02-06T02:21:23.369Z,13.70
2018-02-06T02:21:55.191Z,13.70
2018-02-06T02:22:27.684Z,13.70
2018-02-06T02:22:59.407Z,13.70
2018-02-06T02:23:31.163Z,13.80
2018-02-06T02:24:02.905Z,13.80
2018-02-06T02:24:34.630Z,13.70
2018-02-06T02:25:07.138Z,13.80
2018-02-06T02:25:38.866Z,13.70
2018-02-06T02:26:10.591Z,13.70
2018-02-06T02:26:42.312Z,13.70
2018-02-06T02:27:14.057Z,13.70
2018-02-06T02:27:45.779Z,13.70
2018-02-06T02:28:17.538Z,13.80
2018-02-06T02:28:49.265Z,13.70
2018-02-06T02:29:21.000Z,13.70
2018-02-06T02:29:52.726Z,13.70
2018-02-06T02:30:24.441Z,13.70
2018-02-06T02:30:56.180Z,13.70
2018-02-06T02:31:28.699Z,13.70
2018-02-06T02:32:00.529Z,13.70
2018-02-06T02:32:32.222Z,13.70
2018-02-06T02:33:04.725Z,13.70
2018-02-06T02:33:36.443Z,13.70
2018-02-06T02:34:08.193Z,13.70
2018-02-06T02:34:39.917Z,13.70
2018-02-06T02:35:12.410Z,13.70
2018-02-06T02:35:44.137Z,13.70
2018-02-06T02:36:15.881Z,13.70
2018-02-06T02:36:48.400Z,13.70
2018-02-06T02:37:20.137Z,13.70
2018-02-06T02:37:51.884Z,13.70
2018-02-06T02:38:23.622Z,13.70
2018-02-06T02:38:55.351Z,13.70
2018-02-06T02:39:27.076Z,13.70
2018-02-06T02:39:58.825Z,13.70
2018-02-06T02:40:30.544Z,13.70
2018-02-06T02:41:03.037Z,13.70
2018-02-06T02:41:34.763Z,13.70
2018-02-06T04:38:33.493Z,13.70
2018-02-06T04:39:05.998Z,13.70
2018-02-06T04:39:37.720Z,13.60
2018-02-06T04:40:09.461Z,13.70
2018-02-06T04:40:41.946Z,13.70
2018-02-06T04:41:13.679Z,13.70
2018-02-06T04:41:45.419Z,13.70
2018-02-06T04:42:17.154Z,13.70
2018-02-06T04:42:48.885Z,13.70
2018-02-06T04:43:21.391Z,13.70
2018-02-06T04:43:53.118Z,13.70
2018-02-06T04:44:24.848Z,13.70
2018-02-06T04:44:56.587Z,13.70
2018-02-06T04:45:28.334Z,13.70
2018-02-06T04:46:00.063Z,13.70
2018-02-06T04:46:31.784Z,13.60
2018-02-06T04:47:03.573Z,13.70
2018-02-06T04:47:36.069Z,13.60
2018-02-06T04:48:07.809Z,13.70
2018-02-06T04:48:39.575Z,13.70
2018-02-06T04:49:11.392Z,13.70
2018-02-06T04:49:43.138Z,13.70
2018-02-06T04:50:14.847Z,13.70
2018-02-06T04:50:47.348Z,13.70
2018-02-06T04:51:19.090Z,13.70
2018-02-06T04:51:50.832Z,13.70
2018-02-06T04:52:22.578Z,13.70
2018-02-06T04:52:54.311Z,13.70
2018-02-06T04:53:26.038Z,13.70
2018-02-06T04:53:57.783Z,13.70
2018-02-06T04:54:29.518Z,13.70
2018-02-06T04:55:02.030Z,13.70
2018-02-06T04:55:33.765Z,13.70
2018-02-06T04:56:05.493Z,13.70
2018-02-06T04:56:37.228Z,13.70
2018-02-06T04:57:08.952Z,13.70
2018-02-06T04:57:41.444Z,13.60
2018-02-06T04:58:13.179Z,13.70
2018-02-06T04:58:44.908Z,13.60
2018-02-06T04:59:17.412Z,13.60
2018-02-06T04:59:49.153Z,13.60
2018-02-06T05:00:20.868Z,13.60
2018-02-06T05:00:52.606Z,13.60
2018-02-06T05:01:25.103Z,13.60
2018-02-06T05:01:56.838Z,13.60
2018-02-06T05:02:29.521Z,13.70
2018-02-06T05:03:01.255Z,13.80
2018-02-06T05:03:32.984Z,13.90
2018-02-06T05:04:04.723Z,14.00
2018-02-06T05:04:36.446Z,14.20
2018-02-06T05:05:08.949Z,14.40
2018-02-06T05:05:40.670Z,14.40
2018-02-06T05:06:12.404Z,14.50
2018-02-06T05:06:44.899Z,14.70
2018-02-06T05:07:16.631Z,14.70
2018-02-06T05:07:48.371Z,14.80
2018-02-06T05:08:20.167Z,14.90
2018-02-06T05:08:51.864Z,14.90
2018-02-06T05:09:23.595Z,15.00
2018-02-06T05:09:55.337Z,15.10
2018-02-06T05:10:27.084Z,15.10
2018-02-06T05:10:58.817Z,15.20
2018-02-06T05:11:31.322Z,15.20
2018-02-06T05:12:03.039Z,15.20
2018-02-06T05:12:34.759Z,15.30
2018-02-06T05:13:07.258Z,15.30
2018-02-06T05:13:38.983Z,15.40
2018-02-06T05:14:10.721Z,15.40
2018-02-06T05:14:42.454Z,15.40
2018-02-06T05:15:14.947Z,15.40
2018-02-06T05:15:46.694Z,15.40
2018-02-06T05:16:18.416Z,15.40
2018-02-06T05:16:50.928Z,15.50
2018-02-06T05:17:22.656Z,15.50
2018-02-06T05:17:54.395Z,15.50
2018-02-06T05:18:26.132Z,15.60
2018-02-06T05:18:57.870Z,15.60
2018-02-06T05:19:29.599Z,15.50
2018-02-06T05:20:01.342Z,15.50
2018-02-06T05:20:33.835Z,15.60
2018-02-06T05:21:05.568Z,15.60
2018-02-06T05:21:37.310Z,15.60
2018-02-06T05:22:09.068Z,15.60
2018-02-06T05:22:40.788Z,15.60
2018-02-06T05:23:12.559Z,15.60
2018-02-06T05:23:44.289Z,15.60
2018-02-06T05:24:16.033Z,15.60
2018-02-06T05:24:47.775Z,15.60
2018-02-06T05:25:19.504Z,15.70
2018-02-06T05:25:51.238Z,15.70
2018-02-06T05:26:23.761Z,15.70
2018-02-06T05:26:55.467Z,15.60
2018-02-06T05:27:27.199Z,15.70
2018-02-06T05:27:58.933Z,15.70
2018-02-06T05:28:31.428Z,15.70
2018-02-06T05:29:03.161Z,15.70
2018-02-06T05:29:34.895Z,15.70
2018-02-06T05:30:06.689Z,15.60
2018-02-06T05:30:38.431Z,15.60
2018-02-06T05:31:10.148Z,15.60
2018-02-06T05:31:41.889Z,15.60
2018-02-06T05:32:13.631Z,15.70
2018-02-06T05:32:45.393Z,15.70
2018-02-06T05:33:17.095Z,15.60
2018-02-06T05:33:49.597Z,15.70
2018-02-06T05:34:21.350Z,15.60
2018-02-06T05:34:53.091Z,15.60
2018-02-06T05:35:24.830Z,15.70
2018-02-06T05:35:56.562Z,15.70
2018-02-06T05:36:28.313Z,15.70
2018-02-06T05:37:00.051Z,15.70
2018-02-06T05:37:31.807Z,15.70
2018-02-06T05:38:03.524Z,15.70
2018-02-06T05:38:35.280Z,15.70
2018-02-06T05:39:07.015Z,15.70
2018-02-06T05:39:38.768Z,15.70
2018-02-06T05:40:10.506Z,15.70
2018-02-06T05:40:42.231Z,15.70
2018-02-06T05:41:14.738Z,15.70
2018-02-06T05:41:46.465Z,15.70
2018-02-06T05:42:18.193Z,15.70
2018-02-06T05:42:49.932Z,15.70
2018-02-06T05:43:22.429Z,15.70
2018-02-06T05:43:54.160Z,15.70
2018-02-06T05:44:25.891Z,15.70
2018-02-06T05:44:57.634Z,15.70
2018-02-06T05:45:29.404Z,15.70
2018-02-06T05:46:01.109Z,15.70
2018-02-06T05:46:33.605Z,15.70
2018-02-06T05:47:05.341Z,15.70
2018-02-06T05:47:37.073Z,15.70
2018-02-06T05:48:08.818Z,15.70
2018-02-06T05:48:40.553Z,15.60
2018-02-06T05:49:13.042Z,15.70
2018-02-06T05:49:44.782Z,15.70
2018-02-06T05:50:16.529Z,15.70
2018-02-06T05:50:48.255Z,15.70
2018-02-06T05:51:19.988Z,15.60
2018-02-06T05:51:52.491Z,15.70
2018-02-06T05:52:24.220Z,15.70
2018-02-06T05:52:55.951Z,15.70
2018-02-06T05:53:27.673Z,15.70
2018-02-06T05:54:00.167Z,15.70
2018-02-06T05:54:31.905Z,15.70
2018-02-06T05:55:03.744Z,15.70
2018-02-06T05:55:35.470Z,15.70
2018-02-06T05:56:07.975Z,15.70
2018-02-06T05:56:39.718Z,15.70
2018-02-06T05:57:11.534Z,15.70
2018-02-06T05:57:44.032Z,15.70
2018-02-06T05:58:15.760Z,15.70
2018-02-06T05:58:47.489Z,15.70
2018-02-06T05:59:19.212Z,15.70
2018-02-06T05:59:51.716Z,15.70
2018-02-06T06:00:23.456Z,15.70
2018-02-06T06:00:55.184Z,15.70
2018-02-06T06:01:26.949Z,15.70
2018-02-06T06:01:58.696Z,15.70
2018-02-06T06:02:30.420Z,15.70
2018-02-06T06:03:02.161Z,15.70
2018-02-06T06:03:33.897Z,15.70
2018-02-06T06:04:06.377Z,15.70
2018-02-06T06:04:38.106Z,15.70
2018-02-06T06:05:10.617Z,15.70
2018-02-06T06:05:42.346Z,15.70
2018-02-06T06:06:14.090Z,15.70
2018-02-06T06:06:45.812Z,15.70
2018-02-06T06:07:17.551Z,15.70
2018-02-06T06:07:49.275Z,15.70
2018-02-06T06:08:21.768Z,15.70
2018-02-06T06:08:53.499Z,15.70
2018-02-06T06:09:25.244Z,15.70
2018-02-06T06:09:56.991Z,15.70
2018-02-06T06:10:28.736Z,15.70
2018-02-06T06:11:00.483Z,15.70
2018-02-06T06:11:32.222Z,15.70
2018-02-06T06:12:04.730Z,15.70
2018-02-06T06:12:36.483Z,15.70
2018-02-06T06:13:08.204Z,15.70
2018-02-06T06:13:39.935Z,15.70
2018-02-06T06:14:11.665Z,15.70
2018-02-06T06:14:43.402Z,15.70
2018-02-06T06:15:15.907Z,15.70
2018-02-06T06:15:47.644Z,15.70
2018-02-06T06:16:19.403Z,15.70
2018-02-06T06:16:51.140Z,15.70
2018-02-06T06:17:22.876Z,15.70
2018-02-06T06:17:54.653Z,15.70
2018-02-06T06:18:26.363Z,15.70
2018-02-06T06:18:58.085Z,15.70
2018-02-06T06:19:29.830Z,15.70
2018-02-06T06:20:01.563Z,15.70
2018-02-06T06:20:34.067Z,15.70
2018-02-06T06:21:05.803Z,15.70
2018-02-06T06:21:37.534Z,15.70
2018-02-06T06:22:09.273Z,15.70
2018-02-06T06:22:41.000Z,15.70
2018-02-06T06:23:13.560Z,15.70
2018-02-06T06:23:46.069Z,15.70
2018-02-06T06:24:17.820Z,15.70
2018-02-06T06:24:49.549Z,15.70
2018-02-06T06:25:21.317Z,15.70
2018-02-06T06:25:53.078Z,15.80
2018-02-06T06:26:24.821Z,15.70
2018-02-06T06:26:56.537Z,15.70
2018-02-06T06:27:28.280Z,15.70
2018-02-06T06:28:00.006Z,15.70
2018-02-06T06:28:31.718Z,15.70
2018-02-06T06:29:04.223Z,15.70
2018-02-06T06:29:35.943Z,15.70
2018-02-06T06:30:07.686Z,15.70
2018-02-06T06:30:39.413Z,15.70
2018-02-06T06:31:11.913Z,15.70
2018-02-06T06:31:43.646Z,15.70
2018-02-06T06:32:15.403Z,15.80
2018-02-06T06:32:47.122Z,15.70
2018-02-06T06:33:18.862Z,15.70
2018-02-06T06:33:50.598Z,15.80
2018-02-06T06:34:23.100Z,15.80
2018-02-06T06:34:54.838Z,15.80
2018-02-06T06:35:26.564Z,15.70
2018-02-06T06:35:58.298Z,15.70
2018-02-06T06:36:30.814Z,15.70
2018-02-06T06:37:02.584Z,15.70
2018-02-06T06:37:35.103Z,15.70
2018-02-06T06:38:06.879Z,15.70
2018-02-06T06:38:38.618Z,15.70
2018-02-06T06:39:10.355Z,15.70
2018-02-06T06:39:42.088Z,15.70
2018-02-06T06:40:13.823Z,15.70
2018-02-06T06:40:45.580Z,15.70
2018-02-06T06:41:17.336Z,15.70
2018-02-06T06:41:49.075Z,15.70
2018-02-06T06:42:20.837Z,15.70
2018-02-06T06:42:52.556Z,15.70
2018-02-06T06:43:24.389Z,15.80
2018-02-06T06:43:56.856Z,15.70
2018-02-06T06:44:28.597Z,15.70
2018-02-06T06:45:00.333Z,15.70
2018-02-06T06:45:32.132Z,15.70
2018-02-06T06:46:03.859Z,15.70
2018-02-06T06:46:35.607Z,15.80
2018-02-06T06:47:07.336Z,15.80
2018-02-06T06:47:39.083Z,15.80
2018-02-06T06:48:10.816Z,15.80
2018-02-06T06:48:42.551Z,15.80
2018-02-06T06:49:14.317Z,15.80
2018-02-06T06:49:46.066Z,15.80
2018-02-06T06:50:17.788Z,15.80
2018-02-06T06:50:49.526Z,15.80
2018-02-06T06:51:21.277Z,15.80
2018-02-06T06:51:52.997Z,15.80
2018-02-06T06:52:24.742Z,15.80
2018-02-06T06:52:56.474Z,15.80
2018-02-06T06:53:28.204Z,15.70
2018-02-06T06:54:00.706Z,15.80
2018-02-06T06:54:32.560Z,15.70
2018-02-06T06:55:04.277Z,15.80
2018-02-06T06:55:36.980Z,15.80
2018-02-06T06:56:08.735Z,15.80
2018-02-06T06:56:40.490Z,15.80
2018-02-06T06:57:12.256Z,15.80
2018-02-06T06:57:44.771Z,15.80
2018-02-06T06:58:16.540Z,15.70
2018-02-06T06:58:48.275Z,15.80
2018-02-06T06:59:20.044Z,15.80
2018-02-06T06:59:51.776Z,15.80
2018-02-06T07:00:23.511Z,15.80
2018-02-06T07:00:55.248Z,15.80
2018-02-06T07:01:26.997Z,15.80
2018-02-06T07:01:58.736Z,15.80
2018-02-06T07:02:30.493Z,15.80
2018-02-06T07:03:02.187Z,15.80
2018-02-06T07:03:33.921Z,15.80
2018-02-06T07:04:05.656Z,15.80
2018-02-06T07:04:38.155Z,15.80
2018-02-06T07:05:09.888Z,15.80
2018-02-06T07:05:41.615Z,15.80
2018-02-06T07:06:13.451Z,15.80
2018-02-06T07:06:46.059Z,15.80
2018-02-06T07:07:18.515Z,15.80
2018-02-06T07:07:50.242Z,15.70
2018-02-06T07:08:21.977Z,15.80
2018-02-06T07:08:53.712Z,15.80
2018-02-06T07:09:26.206Z,15.80
2018-02-06T07:09:57.931Z,15.80
2018-02-06T07:10:29.668Z,15.80
2018-02-06T07:11:01.408Z,15.80
2018-02-06T07:11:33.899Z,15.80
2018-02-06T07:12:05.655Z,15.80
2018-02-06T07:12:37.397Z,15.80
2018-02-06T07:13:09.152Z,15.80
2018-02-06T07:13:40.916Z,15.80
2018-02-06T07:14:13.409Z,15.80
2018-02-06T07:14:45.159Z,15.80
2018-02-06T07:15:16.888Z,15.80
2018-02-06T07:15:48.630Z,15.80
2018-02-06T07:16:20.356Z,15.80
2018-02-06T07:16:52.124Z,15.80
2018-02-06T07:17:23.855Z,15.80
2018-02-06T07:17:55.576Z,15.80
2018-02-06T07:18:28.075Z,15.80
2018-02-06T07:18:59.808Z,15.80
2018-02-06T07:19:31.537Z,15.80
2018-02-06T07:20:04.092Z,15.80
2018-02-06T07:20:36.590Z,15.80
2018-02-06T07:21:08.344Z,15.80
2018-02-06T07:21:40.071Z,15.80
2018-02-06T07:22:11.804Z,15.80
2018-02-06T07:22:43.551Z,15.80
2018-02-06T07:23:15.390Z,15.80
2018-02-06T07:23:47.133Z,15.80
2018-02-06T07:24:19.621Z,15.80
2018-02-06T07:24:51.349Z,15.80
2018-02-06T07:25:23.111Z,15.80
2018-02-06T07:25:55.612Z,15.80
2018-02-06T07:26:27.343Z,15.80
2018-02-06T07:26:59.080Z,15.80
2018-02-06T07:27:30.784Z,15.80
2018-02-06T07:28:02.517Z,15.80
2018-02-06T07:28:35.014Z,15.80
2018-02-06T07:29:06.747Z,15.80
2018-02-06T07:29:38.488Z,15.80
2018-02-06T07:30:10.208Z,15.80
2018-02-06T07:30:42.713Z,15.80
2018-02-06T07:31:14.490Z,15.80
2018-02-06T07:31:46.262Z,15.80
2018-02-06T07:32:18.778Z,15.80
2018-02-06T07:32:50.518Z,15.80
2018-02-06T07:33:22.265Z,15.90
2018-02-06T07:33:54.021Z,15.90
2018-02-06T07:34:25.747Z,15.90
2018-02-06T07:34:57.509Z,15.90
2018-02-06T07:35:29.238Z,15.90
2018-02-06T07:36:00.994Z,15.90
2018-02-06T07:36:32.733Z,15.90
2018-02-06T07:37:04.483Z,15.90
2018-02-06T07:37:36.225Z,15.90
2018-02-06T07:38:07.951Z,15.90
2018-02-06T07:38:39.686Z,15.90
2018-02-06T07:39:11.409Z,15.90
2018-02-06T07:39:43.141Z,15.90
2018-02-06T07:40:15.660Z,15.90
2018-02-06T07:40:47.395Z,15.90
2018-02-06T07:41:19.240Z,15.90
2018-02-06T07:41:50.946Z,15.90
2018-02-06T07:42:23.429Z,15.90
2018-02-06T07:42:55.174Z,15.90
2018-02-06T07:43:26.907Z,15.90
2018-02-06T07:43:58.642Z,15.90
2018-02-06T07:44:31.160Z,15.90
2018-02-06T07:45:02.883Z,15.90
2018-02-06T07:45:34.630Z,15.90
2018-02-06T07:46:06.387Z,15.90
2018-02-06T07:46:38.115Z,15.90
2018-02-06T07:47:09.848Z,15.90
2018-02-06T07:47:41.599Z,15.90
2018-02-06T07:48:13.355Z,15.90
2018-02-06T07:48:45.084Z,15.90
2018-02-06T07:49:16.807Z,15.90
2018-02-06T07:49:48.564Z,15.90
2018-02-06T07:50:20.295Z,15.90
2018-02-06T07:50:52.067Z,15.90
2018-02-06T07:51:23.782Z,15.90
2018-02-06T07:51:56.287Z,15.90
2018-02-06T07:52:28.020Z,15.90
2018-02-06T07:52:59.744Z,15.90
2018-02-06T07:53:31.487Z,15.90
2018-02-06T07:54:03.216Z,15.90
2018-02-06T07:54:35.715Z,15.90
2018-02-06T07:55:07.585Z,15.90
2018-02-06T07:55:39.316Z,15.90
2018-02-06T07:56:11.044Z,15.90
2018-02-06T07:56:42.780Z,15.90
2018-02-06T07:57:14.507Z,15.90
2018-02-06T07:57:46.247Z,15.90
2018-02-06T07:58:18.772Z,15.90
2018-02-06T07:58:50.521Z,15.90
2018-02-06T07:59:22.258Z,15.90
2018-02-06T07:59:53.994Z,15.90
2018-02-06T08:00:25.737Z,15.90
2018-02-06T08:00:57.552Z,15.90
2018-02-06T08:01:29.253Z,15.90
2018-02-06T08:02:00.979Z,15.90
2018-02-06T08:02:32.702Z,16.00
2018-02-06T08:03:04.440Z,15.90
2018-02-06T08:03:36.190Z,15.90
2018-02-06T08:04:07.938Z,15.90
2018-02-06T08:04:39.689Z,15.90
2018-02-06T08:05:11.427Z,15.90
2018-02-06T08:05:43.181Z,15.90
2018-02-06T08:06:14.934Z,15.90
2018-02-06T08:06:46.652Z,15.90
2018-02-06T08:07:18.392Z,15.90
2018-02-06T08:07:50.143Z,15.90
2018-02-06T08:08:21.880Z,15.90
2018-02-06T08:08:53.637Z,15.90
2018-02-06T08:09:25.370Z,16.00
2018-02-06T08:09:57.118Z,16.00
2018-02-06T08:10:28.863Z,16.00
2018-02-06T08:11:00.588Z,16.00
2018-02-06T08:11:32.327Z,15.90
2018-02-06T08:12:04.068Z,15.90
2018-02-06T08:12:36.572Z,15.90
2018-02-06T08:13:08.303Z,15.90
2018-02-06T08:13:40.054Z,15.90
2018-02-06T08:14:11.946Z,16.00
2018-02-06T08:14:43.651Z,15.90
2018-02-06T08:15:15.396Z,16.00
2018-02-06T08:15:47.126Z,16.00
2018-02-06T08:16:18.861Z,16.00
2018-02-06T08:16:50.624Z,16.00
2018-02-06T08:17:22.345Z,16.00
2018-02-06T08:17:54.133Z,16.00
2018-02-06T08:18:25.897Z,16.00
2018-02-06T08:18:57.691Z,16.00
2018-02-06T08:19:29.418Z,16.00
2018-02-06T08:20:01.149Z,16.00
2018-02-06T08:20:33.639Z,16.00
2018-02-06T08:21:05.378Z,15.90
2018-02-06T08:21:37.134Z,16.00
2018-02-06T08:22:08.914Z,16.00
2018-02-06T08:22:40.649Z,16.00
2018-02-06T08:23:12.387Z,15.90
2018-02-06T08:23:44.112Z,16.00
2018-02-06T08:24:15.834Z,16.00
2018-02-06T08:24:47.571Z,16.00
2018-02-06T08:25:19.336Z,16.00
2018-02-06T08:25:51.063Z,16.00
2018-02-06T08:26:22.804Z,16.00
2018-02-06T08:26:55.312Z,16.00
2018-02-06T08:27:27.047Z,16.00
2018-02-06T08:27:58.778Z,16.00
2018-02-06T08:28:30.531Z,16.00
2018-02-06T08:29:02.283Z,15.90
2018-02-06T08:29:34.006Z,16.00
2018-02-06T08:30:05.739Z,16.00
2018-02-06T08:30:37.492Z,16.00
2018-02-06T08:31:09.229Z,16.00
2018-02-06T08:31:40.971Z,16.00
2018-02-06T08:32:12.708Z,16.00
2018-02-06T08:32:44.469Z,16.00
2018-02-06T08:33:16.205Z,16.00
2018-02-06T08:33:47.940Z,16.00
2018-02-06T08:34:19.674Z,16.00
2018-02-06T08:34:52.160Z,16.00
2018-02-06T08:35:23.912Z,16.00
2018-02-06T08:35:55.667Z,16.00
2018-02-06T08:36:27.380Z,16.00
2018-02-06T08:36:59.104Z,16.00
2018-02-06T08:37:31.621Z,16.00
2018-02-06T08:38:03.364Z,16.00
2018-02-06T08:38:35.097Z,16.00
2018-02-06T08:39:06.835Z,16.00
2018-02-06T08:39:38.560Z,16.00
2018-02-06T08:40:10.303Z,16.00
2018-02-06T08:40:42.804Z,16.00
2018-02-06T08:41:14.536Z,16.00
2018-02-06T08:41:46.287Z,16.00
2018-02-06T08:42:18.031Z,16.00
2018-02-06T08:42:49.765Z,16.00
2018-02-06T08:43:21.487Z,16.00
2018-02-06T08:43:53.240Z,16.00
2018-02-06T08:44:25.715Z,16.00
2018-02-06T08:44:57.445Z,16.00
2018-02-06T08:45:29.183Z,16.00
2018-02-06T08:46:00.939Z,16.00
2018-02-06T08:46:32.680Z,16.00
2018-02-06T08:47:04.427Z,16.00